Latest Weather Observations for Gatton

IDQ60801

Issued at 11:35 pm EST Tuesday 30 September 2014 (issued every 30 minutes, with the page automatically refreshed every 10 minutes)

About weather observations | Map of weather stations | Latest weather observations for QLD | Other Formats
Station Details ID: 040082 Name: UNIVERSITY OF QUEENSLAND GATTON Lat: -27.54 Lon: 152.34 Height: 89.0 m
Data from the previous 72 hours. | See also: Recent months at Gatton
Date/Time
EST
Temp
°C
App
Temp
°C
Dew
Point
Rel
Hum
%
Delta-T
°C
Wind Press
QNH
hPa
Press
MSL
hPa
Rain
since 9 am
mm
Dir
 
Spd
km/h
Gust
km/h
Spd
kts
Gust
kts
30/11:30pm 15.7 16.4 12.1 79 2.0 WNW 0 0 0 0 - - 0.0
30/11:00pm 16.8 16.6 12.9 78 2.2 ESE 6 7 3 4 - - 0.0
30/10:30pm 17.6 18.7 13.5 77 2.3 CALM 0 6 0 3 - - 0.0
30/10:00pm 18.9 17.8 14.2 74 2.7 SSE 13 17 7 9 - - 0.0
30/09:30pm 18.6 18.1 13.7 73 2.8 SE 9 11 5 6 - - 0.0
30/09:00pm 19.7 19.4 14.3 71 3.1 SSE 9 11 5 6 - - 0.0
30/08:30pm 20.4 20.1 14.3 68 3.6 SSE 9 11 5 6 - - 0.0
30/08:00pm 19.7 19.6 13.4 67 3.6 E 6 7 3 4 - - 0.0
30/07:30pm 21.5 22.0 14.9 66 3.9 ENE 6 7 3 4 - - 0.0
30/07:00pm 23.2 23.0 14.7 58 5.1 NE 9 15 5 8 - - 0.0
30/06:30pm 23.9 22.5 14.6 56 5.5 ENE 15 19 8 10 - - 0.0
30/06:00pm 25.3 23.7 13.8 49 6.8 ENE 15 22 8 12 - - 0.0
30/05:30pm 27.4 25.8 10.2 34 9.7 NE 9 13 5 7 - - 0.0
30/05:00pm 28.6 26.0 10.8 33 10.2 NNE 15 20 8 11 - - 0.0
30/04:30pm 29.6 27.1 11.2 32 10.6 NNE 15 20 8 11 - - 0.0
30/04:00pm 29.6 27.0 10.7 31 10.8 NNE 15 20 8 11 - - 0.0
30/03:30pm 30.0 27.9 11.0 31 11.0 NNE 13 19 7 10 - - 0.0
30/03:00pm 30.3 28.0 11.8 32 10.8 ENE 15 20 8 11 - - 0.0
30/02:30pm 30.3 28.9 12.2 33 10.6 NNE 11 19 6 10 - - 0.0
30/02:00pm 29.9 28.3 11.4 32 10.7 NE 11 19 6 10 - - 0.0
30/01:30pm 29.5 28.6 11.5 33 10.4 E 7 13 4 7 - - 0.0
30/01:00pm 29.3 28.7 12.3 35 10.0 NNE 7 15 4 8 - - 0.0
30/12:30pm 28.8 27.8 13.5 39 9.1 NE 11 17 6 9 - - 0.0
30/12:00pm 27.3 26.1 12.9 41 8.5 N 11 15 6 8 - - 0.0
30/11:30am 26.5 25.6 13.6 45 7.6 NNE 11 20 6 11 - - 0.0
30/11:00am 25.7 25.1 13.5 46 7.2 NNE 9 17 5 9 - - 0.0
30/10:30am 24.2 23.5 13.1 50 6.5 NE 9 15 5 8 - - 0.0
30/10:00am 23.1 22.4 13.3 54 5.7 NE 9 13 5 7 - - 0.0
30/09:30am 21.6 21.4 13.0 58 4.9 NNW 6 9 3 5 - - 0.0
30/09:00am 21.0 20.6 12.9 60 4.6 N 7 11 4 6 - - 0.0
30/08:30am 19.5 19.2 12.7 65 3.8 SW 6 11 3 6 - - 0.0
30/08:00am 18.1 17.8 12.8 71 3.0 W 6 9 3 5 - - 0.0
30/07:30am 16.3 15.7 12.3 77 2.2 W 7 11 4 6 - - 0.0
30/07:00am 14.4 13.6 11.7 84 1.5 W 7 9 4 5 - - 0.0
30/06:30am 12.6 11.2 10.8 89 0.9 W 9 11 5 6 - - 0.0
30/06:00am 11.3 10.0 9.9 91 0.7 WSW 7 9 4 5 - - 0.0
30/05:30am 11.0 9.3 9.8 92 0.6 W 9 13 5 7 - - 0.0
30/05:00am 11.2 9.4 9.6 90 0.8 W 9 9 5 5 - - 0.0
30/04:30am 11.6 10.0 10.3 92 0.7 W 9 11 5 6 - - 0.0
30/04:00am 11.3 9.6 9.7 90 0.8 WSW 9 11 5 6 - - 0.0
30/03:30am 10.9 9.7 9.5 91 0.7 WSW 6 9 3 5 - - 0.0
30/03:00am 11.6 9.9 9.9 89 0.9 W 9 11 5 6 - - 0.0
30/02:30am 10.8 9.5 9.2 90 0.8 WSW 6 9 3 5 - - 0.0
30/02:00am 11.8 12.0 10.7 93 0.6 CALM 0 0 0 0 - - 0.0
30/01:30am 11.6 11.6 9.9 89 0.9 CALM 0 0 0 0 - - 0.0
30/01:00am 11.4 10.8 9.1 86 1.2 WSW 2 7 1 4 - - 0.0
30/12:30am 12.5 12.7 10.6 88 1.0 CALM 0 0 0 0 - - 0.0
30/12:00am 13.0 13.2 10.4 84 1.4 WSW 0 0 0 0 - - 0.0
 
Date/Time
EST
Temp
°C
App
Temp
°C
Dew
Point
Rel
Hum
%
Delta-T
°C
Wind Press
QNH
hPa
Press
MSL
hPa
Rain
since 9 am
mm
Dir
 
Spd
km/h
Gust
km/h
Spd
kts
Gust
kts
29/11:30pm 13.9 13.6 11.6 86 1.2 SE 4 6 2 3 - - 0.0
29/11:00pm 14.2 13.1 10.6 79 1.9 SE 7 11 4 6 - - 0.0
29/10:30pm 14.6 14.1 11.9 84 1.5 SSE 6 11 3 6 - - 0.0
29/10:00pm 14.9 15.2 10.9 77 2.1 CALM 0 0 0 0 - - 0.0
29/09:30pm 16.8 17.1 12.1 74 2.6 SSE 2 7 1 4 - - 0.0
29/09:00pm 16.8 16.3 12.5 76 2.4 S 7 9 4 5 - - 0.0
29/08:30pm 16.7 17.4 12.3 75 2.4 CALM 0 4 0 2 - - 0.0
29/08:00pm 17.6 17.2 12.3 71 2.9 NE 6 7 3 4 - - 0.0
29/07:30pm 18.8 18.4 12.3 66 3.6 E 6 7 3 4 - - 0.0
29/07:00pm 21.3 20.8 13.7 62 4.4 NE 9 11 5 6 - - 0.0
29/06:30pm 21.5 19.7 13.4 60 4.7 E 15 17 8 9 - - 0.0
29/06:00pm 24.0 22.0 8.8 38 8.2 NE 9 13 5 7 - - 0.0
29/05:30pm 25.6 23.3 9.0 35 9.1 NE 11 15 6 8 - - 0.0
29/05:00pm 26.6 24.2 9.9 35 9.3 NNE 13 17 7 9 - - 0.0
29/04:30pm 27.6 24.8 9.9 33 9.9 ENE 15 20 8 11 - - 0.0
29/04:00pm 27.9 25.4 9.7 32 10.2 NE 13 19 7 10 - - 0.0
29/03:30pm 28.2 27.0 10.4 33 10.1 N 7 13 4 7 - - 0.0
29/03:00pm 27.9 26.2 9.7 32 10.2 NE 9 19 5 10 - - 0.0
29/02:30pm 27.9 26.4 10.6 34 9.8 ENE 9 15 5 8 - - 0.0
29/02:00pm 28.0 26.5 10.7 34 9.8 E 9 19 5 10 - - 0.0
29/01:30pm 27.2 25.0 10.8 36 9.3 E 13 20 7 11 - - 0.0
29/01:00pm 26.8 24.9 11.7 39 8.7 ENE 13 20 7 11 - - 0.0
29/12:30pm 25.9 24.3 12.7 44 7.7 ENE 13 20 7 11 - - 0.0
29/12:00pm 25.4 24.5 12.6 45 7.4 ENE 9 17 5 9 - - 0.0
29/11:30am 24.6 23.2 13.5 50 6.5 E 13 24 7 13 - - 0.0
29/11:00am 24.4 22.7 13.6 51 6.3 NE 15 20 8 11 - - 0.0
29/10:30am 23.0 21.3 12.6 52 6.0 NE 13 20 7 11 - - 0.0
29/10:00am 21.9 20.8 13.0 57 5.1 E 11 17 6 9 - - 0.0
29/09:30am 21.5 20.4 13.2 59 4.8 NE 11 19 6 10 - - 0.0
29/09:00am 19.7 18.4 12.5 63 4.1 E 11 15 6 8 - - 0.0
29/08:30am 18.5 17.7 11.8 65 3.7 ENE 7 11 4 6 - - 0.0
29/08:00am 17.3 17.0 11.6 69 3.1 NNE 4 9 2 5 - - 0.0
29/07:30am 15.1 14.4 11.5 79 1.9 W 6 9 3 5 - - 0.0
29/07:00am 13.4 12.1 11.1 86 1.2 W 9 11 5 6 - - 0.0
29/06:30am 11.9 10.8 10.5 91 0.7 W 7 9 4 5 - - 0.0
29/06:00am 10.1 8.6 9.0 93 0.5 W 7 9 4 5 - - 0.0
29/05:30am 10.2 8.4 9.4 95 0.4 W 9 13 5 7 - - 0.0
29/05:00am 10.0 8.1 9.2 95 0.4 W 9 11 5 6 - - 0.0
29/04:30am 8.8 7.0 7.1 89 0.8 WSW 6 7 3 4 - - 0.0
29/04:00am 9.5 8.6 7.9 90 0.8 WSW 2 6 1 3 - - 0.0
29/03:30am 10.4 10.2 9.0 91 0.7 CALM 0 6 0 3 - - 0.0
29/03:00am 11.0 9.9 9.9 93 0.6 WSW 6 7 3 4 - - 0.0
29/02:30am 11.2 10.4 9.6 90 0.8 SW 4 11 2 6 - - 0.0
29/02:00am 10.9 9.5 9.7 92 0.6 WSW 7 9 4 5 - - 0.0
29/01:30am 10.5 9.0 8.6 88 0.9 WSW 6 6 3 3 - - 0.0
29/01:00am 10.9 9.5 9.0 88 0.9 WSW 6 6 3 3 - - 0.0
29/12:30am 11.7 11.7 9.9 89 0.9 CALM 0 0 0 0 - - 0.0
29/12:00am 11.7 10.5 9.6 87 1.1 WNW 6 6 3 3 - - 0.0
 
Date/Time
EST
Temp
°C
App
Temp
°C
Dew
Point
Rel
Hum
%
Delta-T
°C
Wind Press
QNH
hPa
Press
MSL
hPa
Rain
since 9 am
mm
Dir
 
Spd
km/h
Gust
km/h
Spd
kts
Gust
kts
28/11:30pm 11.9 11.6 8.7 81 1.6 CALM 0 0 0 0 - - 0.0
28/11:00pm 13.7 13.0 10.1 79 1.9 S 4 6 2 3 - - 0.0
28/10:30pm 14.9 13.9 11.1 78 2.0 SSE 7 9 4 5 - - 0.0
28/10:00pm 14.1 13.0 10.1 77 2.1 SSE 6 7 3 4 - - 0.0
28/09:30pm 15.4 14.3 10.8 74 2.5 SE 7 9 4 5 - - 0.0
28/09:00pm 16.2 14.9 11.4 73 2.6 ESE 9 11 5 6 - - 0.0
28/08:30pm 16.7 15.9 11.6 72 2.8 ESE 7 9 4 5 - - 0.0
28/08:00pm 17.4 16.4 12.3 72 2.8 SE 9 11 5 6 - - 0.0
28/07:30pm 18.4 16.8 12.8 70 3.1 E 13 17 7 9 - - 0.0
28/07:00pm 18.8 16.4 12.5 67 3.5 ENE 17 20 9 11 - - 0.0
28/06:30pm 20.2 17.3 12.4 61 4.4 ENE 19 24 10 13 - - 0.0
28/06:00pm 21.1 17.5 12.0 56 5.1 ENE 22 28 12 15 - - 0.0
28/05:30pm 23.0 20.8 9.4 42 7.4 ENE 11 20 6 11 - - 0.0
28/05:00pm 24.4 22.7 7.5 34 8.9 NNE 6 7 3 4 - - 0.0
28/04:30pm 24.9 22.7 8.0 34 9.0 NNE 9 11 5 6 - - 0.0
28/04:00pm 25.4 22.9 8.4 34 9.2 NNW 11 17 6 9 - - 0.0
28/03:30pm 24.8 22.3 8.3 35 8.9 N 11 17 6 9 - - 0.0
28/03:00pm 25.4 22.8 9.3 36 8.8 E 13 17 7 9 - - 0.0
28/02:30pm 24.8 22.5 9.1 37 8.5 NNE 11 17 6 9 - - 0.0
28/02:00pm 25.1 23.5 10.2 39 8.3 N 9 15 5 8 - - 0.0
28/01:30pm 25.5 23.2 10.5 39 8.4 ENE 13 20 7 11 - - 0.0
28/01:00pm 24.9 23.0 10.4 40 8.1 NNE 11 15 6 8 - - 0.0
28/12:30pm 24.6 22.2 10.1 40 8.0 ENE 13 20 7 11 - - 0.0
28/12:00pm 23.7 21.4 11.7 47 6.8 ENE 15 24 8 13 - - 0.0
28/11:30am 23.7 21.8 11.7 47 6.8 ENE 13 20 7 11 - - 0.0
28/11:00am 22.8 20.3 11.2 48 6.5 ENE 15 22 8 12 - - 0.0
28/10:30am 22.6 20.2 11.4 49 6.3 ENE 15 24 8 13 - - 0.0
28/10:00am 21.7 20.0 12.3 55 5.3 ENE 13 20 7 11 - - 0.0
28/09:30am 20.5 18.4 11.2 55 5.1 E 13 28 7 15 - - 0.0
28/09:00am 20.1 18.3 10.8 55 5.1 E 11 17 6 9 - - 0.0
28/08:30am 19.6 18.0 11.4 59 4.5 SE 11 19 6 10 - - 0.0
28/08:00am 19.2 17.5 11.3 60 4.3 SE 11 17 6 9 - - 0.0
28/07:30am 18.4 17.2 11.7 65 3.7 ESE 9 13 5 7 - - 0.0
28/07:00am 17.5 17.4 12.0 70 3.0 SE 4 9 2 5 - - 0.0
28/06:30am 15.0 15.8 12.5 85 1.4 CALM 0 0 0 0 - - 0.0
28/06:00am 13.6 13.8 10.6 82 1.6 CALM 0 0 0 0 - - 0.0
28/05:30am 14.5 13.6 11.3 81 1.7 SE 7 9 4 5 - - 0.0
28/05:00am 15.3 14.6 11.5 78 2.1 E 6 9 3 5 - - 0.0
28/04:30am 15.6 15.1 12.5 82 1.7 E 7 7 4 4 - - 0.0
28/04:00am 16.0 15.1 12.6 80 1.9 ESE 9 13 5 7 - - 0.0
28/03:30am 15.6 14.7 12.5 82 1.7 E 9 13 5 7 - - 0.0
28/03:00am 16.3 15.7 13.4 83 1.6 E 9 13 5 7 - - 0.0
28/02:30am 16.3 16.4 13.8 85 1.4 ESE 6 7 3 4 - - 0.0
28/02:00am 16.0 17.2 13.8 87 1.2 CALM 0 0 0 0 - - 0.0
28/01:30am 15.9 17.2 14.1 89 1.0 CALM 0 0 0 0 - - 0.0
28/01:00am 15.4 16.5 13.6 89 1.0 CALM 0 0 0 0 - - 0.0
28/12:30am 15.2 16.3 13.4 89 1.0 CALM 0 0 0 0 - - 0.0
28/12:00am 15.3 16.0 13.3 88 1.1 E 2 6 1 3 - - 0.0

Other Formats:

Comma delimited format used in spreadsheet applications
http://www.bom.gov.au/fwo/IDQ60801/IDQ60801.94562.axf

JavaScript Object Notation format (JSON) in row-major order
http://www.bom.gov.au/fwo/IDQ60801/IDQ60801.94562.json